sensor_id;sensor_type;location;lat;lon;timestamp;P1;durP1;ratioP1;P2;durP2;ratioP2
22628;SDS011;11481;53.694;9.910;2023-03-30T00:00:53;25.33;;;11.15;;
22628;SDS011;11481;53.694;9.910;2023-03-30T00:03:20;25.17;;;12.20;;
22628;SDS011;11481;53.694;9.910;2023-03-30T00:05:48;31.58;;;12.25;;
22628;SDS011;11481;53.694;9.910;2023-03-30T00:08:17;27.35;;;11.63;;
22628;SDS011;11481;53.694;9.910;2023-03-30T00:10:44;25.77;;;11.88;;
22628;SDS011;11481;53.694;9.910;2023-03-30T00:13:12;21.88;;;10.25;;
22628;SDS011;11481;53.694;9.910;2023-03-30T00:15:39;25.17;;;10.70;;
22628;SDS011;11481;53.694;9.910;2023-03-30T00:18:06;24.38;;;10.15;;
22628;SDS011;11481;53.694;9.910;2023-03-30T00:20:34;25.98;;;11.35;;
22628;SDS011;11481;53.694;9.910;2023-03-30T00:23:02;25.40;;;11.02;;
22628;SDS011;11481;53.694;9.910;2023-03-30T00:25:29;31.80;;;13.32;;
22628;SDS011;11481;53.694;9.910;2023-03-30T00:27:56;26.60;;;10.85;;
22628;SDS011;11481;53.694;9.910;2023-03-30T00:30:23;24.10;;;10.65;;
22628;SDS011;11481;53.694;9.910;2023-03-30T00:32:50;27.70;;;12.55;;
22628;SDS011;11481;53.694;9.910;2023-03-30T00:35:17;29.58;;;12.10;;
22628;SDS011;11481;53.694;9.910;2023-03-30T00:37:44;27.55;;;11.98;;
22628;SDS011;11481;53.694;9.910;2023-03-30T00:40:16;26.83;;;11.98;;
22628;SDS011;11481;53.694;9.910;2023-03-30T00:42:46;25.88;;;11.52;;
22628;SDS011;11481;53.694;9.910;2023-03-30T00:45:19;22.92;;;10.95;;
22628;SDS011;11481;53.694;9.910;2023-03-30T00:48:09;24.92;;;10.73;;
22628;SDS011;11481;53.694;9.910;2023-03-30T00:50:59;26.48;;;11.73;;
22628;SDS011;11481;53.694;9.910;2023-03-30T00:53:33;24.27;;;10.80;;
22628;SDS011;11481;53.694;9.910;2023-03-30T00:56:01;26.35;;;11.25;;
22628;SDS011;11481;53.694;9.910;2023-03-30T00:58:30;23.30;;;11.48;;
22628;SDS011;11481;53.694;9.910;2023-03-30T01:00:58;24.13;;;11.07;;
22628;SDS011;11481;53.694;9.910;2023-03-30T01:03:29;25.02;;;10.80;;
22628;SDS011;11481;53.694;9.910;2023-03-30T01:05:58;23.73;;;10.45;;
22628;SDS011;11481;53.694;9.910;2023-03-30T01:08:27;23.58;;;11.50;;
22628;SDS011;11481;53.694;9.910;2023-03-30T01:10:58;26.02;;;11.38;;
22628;SDS011;11481;53.694;9.910;2023-03-30T01:13:30;22.30;;;10.20;;
22628;SDS011;11481;53.694;9.910;2023-03-30T01:16:02;23.70;;;10.75;;
22628;SDS011;11481;53.694;9.910;2023-03-30T01:18:50;24.13;;;10.10;;
22628;SDS011;11481;53.694;9.910;2023-03-30T01:24:57;20.65;;;9.48;;
22628;SDS011;11481;53.694;9.910;2023-03-30T01:33:42;23.83;;;9.82;;
22628;SDS011;11481;53.694;9.910;2023-03-30T01:36:21;21.13;;;9.68;;
22628;SDS011;11481;53.694;9.910;2023-03-30T01:39:15;22.30;;;9.63;;
22628;SDS011;11481;53.694;9.910;2023-03-30T01:41:59;20.60;;;8.82;;
22628;SDS011;11481;53.694;9.910;2023-03-30T01:50:12;21.15;;;9.15;;
22628;SDS011;11481;53.694;9.910;2023-03-30T01:53:00;22.58;;;10.13;;
22628;SDS011;11481;53.694;9.910;2023-03-30T01:55:43;22.60;;;9.05;;
22628;SDS011;11481;53.694;9.910;2023-03-30T02:00:47;22.25;;;8.60;;
22628;SDS011;11481;53.694;9.910;2023-03-30T02:03:20;20.05;;;9.52;;
22628;SDS011;11481;53.694;9.910;2023-03-30T02:05:54;21.63;;;9.90;;
22628;SDS011;11481;53.694;9.910;2023-03-30T02:08:26;22.05;;;9.15;;
22628;SDS011;11481;53.694;9.910;2023-03-30T02:10:56;20.70;;;8.55;;
22628;SDS011;11481;53.694;9.910;2023-03-30T02:13:25;20.17;;;9.18;;
22628;SDS011;11481;53.694;9.910;2023-03-30T02:15:55;20.92;;;9.93;;
22628;SDS011;11481;53.694;9.910;2023-03-30T02:18:27;23.17;;;9.70;;
22628;SDS011;11481;53.694;9.910;2023-03-30T02:20:54;20.83;;;9.85;;
22628;SDS011;11481;53.694;9.910;2023-03-30T02:23:25;21.45;;;9.27;;
22628;SDS011;11481;53.694;9.910;2023-03-30T02:25:55;22.13;;;8.73;;
22628;SDS011;11481;53.694;9.910;2023-03-30T02:28:22;22.50;;;10.73;;
22628;SDS011;11481;53.694;9.910;2023-03-30T02:30:49;21.55;;;10.10;;
22628;SDS011;11481;53.694;9.910;2023-03-30T02:33:32;23.67;;;10.23;;
22628;SDS011;11481;53.694;9.910;2023-03-30T02:39:04;26.60;;;9.30;;
22628;SDS011;11481;53.694;9.910;2023-03-30T02:41:58;24.58;;;10.32;;
22628;SDS011;11481;53.694;9.910;2023-03-30T02:47:53;22.05;;;9.45;;
22628;SDS011;11481;53.694;9.910;2023-03-30T02:53:33;24.92;;;10.30;;
22628;SDS011;11481;53.694;9.910;2023-03-30T02:56:22;26.27;;;9.70;;
22628;SDS011;11481;53.694;9.910;2023-03-30T02:59:05;22.67;;;10.45;;
22628;SDS011;11481;53.694;9.910;2023-03-30T03:01:41;26.15;;;10.07;;
22628;SDS011;11481;53.694;9.910;2023-03-30T03:04:18;25.90;;;10.38;;
22628;SDS011;11481;53.694;9.910;2023-03-30T03:06:47;24.05;;;9.65;;
22628;SDS011;11481;53.694;9.910;2023-03-30T03:09:18;21.40;;;9.73;;
22628;SDS011;11481;53.694;9.910;2023-03-30T03:11:45;23.27;;;10.75;;
22628;SDS011;11481;53.694;9.910;2023-03-30T03:14:12;25.02;;;11.68;;
22628;SDS011;11481;53.694;9.910;2023-03-30T03:16:40;25.20;;;10.75;;
22628;SDS011;11481;53.694;9.910;2023-03-30T03:19:07;22.88;;;10.57;;
22628;SDS011;11481;53.694;9.910;2023-03-30T03:21:35;24.70;;;10.85;;
22628;SDS011;11481;53.694;9.910;2023-03-30T03:24:02;23.95;;;10.38;;
22628;SDS011;11481;53.694;9.910;2023-03-30T03:26:30;20.23;;;10.18;;
22628;SDS011;11481;53.694;9.910;2023-03-30T03:28:56;23.50;;;10.40;;
22628;SDS011;11481;53.694;9.910;2023-03-30T03:31:23;23.00;;;9.98;;
22628;SDS011;11481;53.694;9.910;2023-03-30T03:33:52;19.95;;;9.50;;
22628;SDS011;11481;53.694;9.910;2023-03-30T03:36:19;25.63;;;10.20;;
22628;SDS011;11481;53.694;9.910;2023-03-30T03:38:47;20.67;;;9.30;;
22628;SDS011;11481;53.694;9.910;2023-03-30T03:41:14;22.42;;;9.30;;
22628;SDS011;11481;53.694;9.910;2023-03-30T03:43:41;18.60;;;9.05;;
22628;SDS011;11481;53.694;9.910;2023-03-30T03:46:07;23.42;;;9.73;;
22628;SDS011;11481;53.694;9.910;2023-03-30T03:48:34;23.13;;;9.25;;
22628;SDS011;11481;53.694;9.910;2023-03-30T03:51:04;20.17;;;9.93;;
22628;SDS011;11481;53.694;9.910;2023-03-30T03:53:31;23.00;;;10.25;;
22628;SDS011;11481;53.694;9.910;2023-03-30T03:55:58;20.60;;;9.82;;
22628;SDS011;11481;53.694;9.910;2023-03-30T03:58:25;25.42;;;10.60;;
22628;SDS011;11481;53.694;9.910;2023-03-30T04:00:56;26.08;;;10.13;;
22628;SDS011;11481;53.694;9.910;2023-03-30T04:03:24;23.42;;;10.10;;
22628;SDS011;11481;53.694;9.910;2023-03-30T04:05:51;24.55;;;9.88;;
22628;SDS011;11481;53.694;9.910;2023-03-30T04:08:18;23.10;;;9.02;;
22628;SDS011;11481;53.694;9.910;2023-03-30T04:10:44;27.30;;;10.63;;
22628;SDS011;11481;53.694;9.910;2023-03-30T04:13:12;20.23;;;9.65;;
22628;SDS011;11481;53.694;9.910;2023-03-30T04:15:39;20.80;;;9.18;;
22628;SDS011;11481;53.694;9.910;2023-03-30T04:18:05;23.35;;;9.63;;
22628;SDS011;11481;53.694;9.910;2023-03-30T04:20:33;22.45;;;10.38;;
22628;SDS011;11481;53.694;9.910;2023-03-30T04:23:00;20.80;;;9.52;;
22628;SDS011;11481;53.694;9.910;2023-03-30T04:25:27;25.02;;;9.93;;
22628;SDS011;11481;53.694;9.910;2023-03-30T04:27:54;21.27;;;10.00;;
22628;SDS011;11481;53.694;9.910;2023-03-30T04:30:23;24.50;;;10.60;;
22628;SDS011;11481;53.694;9.910;2023-03-30T04:32:50;20.17;;;9.20;;
22628;SDS011;11481;53.694;9.910;2023-03-30T04:35:33;19.63;;;10.25;;
22628;SDS011;11481;53.694;9.910;2023-03-30T04:38:00;22.00;;;9.48;;
22628;SDS011;11481;53.694;9.910;2023-03-30T04:40:28;22.77;;;9.90;;
22628;SDS011;11481;53.694;9.910;2023-03-30T04:42:55;21.58;;;9.48;;
22628;SDS011;11481;53.694;9.910;2023-03-30T04:45:28;25.00;;;10.15;;
22628;SDS011;11481;53.694;9.910;2023-03-30T04:47:56;20.92;;;9.30;;
22628;SDS011;11481;53.694;9.910;2023-03-30T04:50:23;19.70;;;9.35;;
22628;SDS011;11481;53.694;9.910;2023-03-30T04:52:50;27.15;;;10.60;;
22628;SDS011;11481;53.694;9.910;2023-03-30T04:55:16;19.75;;;9.20;;
22628;SDS011;11481;53.694;9.910;2023-03-30T04:57:43;24.60;;;10.02;;
22628;SDS011;11481;53.694;9.910;2023-03-30T05:00:12;22.63;;;9.65;;
22628;SDS011;11481;53.694;9.910;2023-03-30T05:02:41;21.02;;;9.25;;
22628;SDS011;11481;53.694;9.910;2023-03-30T05:05:08;21.02;;;9.20;;
22628;SDS011;11481;53.694;9.910;2023-03-30T05:07:39;22.50;;;9.68;;
22628;SDS011;11481;53.694;9.910;2023-03-30T05:10:08;21.38;;;9.77;;
22628;SDS011;11481;53.694;9.910;2023-03-30T05:12:35;20.92;;;8.90;;
22628;SDS011;11481;53.694;9.910;2023-03-30T05:15:02;24.58;;;9.40;;
22628;SDS011;11481;53.694;9.910;2023-03-30T05:17:33;22.33;;;9.45;;
22628;SDS011;11481;53.694;9.910;2023-03-30T05:20:00;20.98;;;8.90;;
22628;SDS011;11481;53.694;9.910;2023-03-30T05:22:27;19.88;;;9.30;;
22628;SDS011;11481;53.694;9.910;2023-03-30T05:24:54;18.95;;;8.60;;
22628;SDS011;11481;53.694;9.910;2023-03-30T05:27:20;22.10;;;9.63;;
22628;SDS011;11481;53.694;9.910;2023-03-30T05:29:47;19.02;;;8.90;;
22628;SDS011;11481;53.694;9.910;2023-03-30T05:32:16;19.98;;;9.18;;
22628;SDS011;11481;53.694;9.910;2023-03-30T05:34:43;18.63;;;8.02;;
22628;SDS011;11481;53.694;9.910;2023-03-30T05:37:10;19.67;;;8.55;;
22628;SDS011;11481;53.694;9.910;2023-03-30T05:39:36;18.45;;;8.60;;
22628;SDS011;11481;53.694;9.910;2023-03-30T05:42:03;20.15;;;9.10;;
22628;SDS011;11481;53.694;9.910;2023-03-30T05:44:30;23.35;;;8.45;;
22628;SDS011;11481;53.694;9.910;2023-03-30T05:46:57;22.25;;;9.40;;
22628;SDS011;11481;53.694;9.910;2023-03-30T05:49:27;15.52;;;7.75;;
22628;SDS011;11481;53.694;9.910;2023-03-30T05:51:54;21.45;;;8.48;;
22628;SDS011;11481;53.694;9.910;2023-03-30T05:54:21;22.10;;;8.75;;
22628;SDS011;11481;53.694;9.910;2023-03-30T05:56:48;17.65;;;8.15;;
22628;SDS011;11481;53.694;9.910;2023-03-30T05:59:17;15.65;;;7.75;;
22628;SDS011;11481;53.694;9.910;2023-03-30T06:01:45;20.83;;;7.85;;
22628;SDS011;11481;53.694;9.910;2023-03-30T06:04:12;18.98;;;8.00;;
22628;SDS011;11481;53.694;9.910;2023-03-30T06:06:41;14.02;;;6.18;;
22628;SDS011;11481;53.694;9.910;2023-03-30T06:09:08;16.38;;;6.55;;
22628;SDS011;11481;53.694;9.910;2023-03-30T06:11:38;12.20;;;6.30;;
22628;SDS011;11481;53.694;9.910;2023-03-30T06:14:06;12.18;;;5.50;;
22628;SDS011;11481;53.694;9.910;2023-03-30T06:16:35;12.05;;;5.50;;
22628;SDS011;11481;53.694;9.910;2023-03-30T06:19:02;15.10;;;6.25;;
22628;SDS011;11481;53.694;9.910;2023-03-30T06:21:31;9.65;;;4.70;;
22628;SDS011;11481;53.694;9.910;2023-03-30T06:23:57;13.75;;;5.20;;
22628;SDS011;11481;53.694;9.910;2023-03-30T06:26:24;14.20;;;5.47;;
22628;SDS011;11481;53.694;9.910;2023-03-30T06:28:51;12.48;;;5.30;;
22628;SDS011;11481;53.694;9.910;2023-03-30T06:31:18;13.82;;;6.25;;
22628;SDS011;11481;53.694;9.910;2023-03-30T06:33:44;11.27;;;5.57;;
22628;SDS011;11481;53.694;9.910;2023-03-30T06:36:12;12.27;;;4.93;;
22628;SDS011;11481;53.694;9.910;2023-03-30T06:38:40;11.82;;;4.93;;
22628;SDS011;11481;53.694;9.910;2023-03-30T06:41:08;14.23;;;6.20;;
22628;SDS011;11481;53.694;9.910;2023-03-30T06:43:37;16.77;;;5.68;;
22628;SDS011;11481;53.694;9.910;2023-03-30T06:46:04;12.75;;;5.82;;
22628;SDS011;11481;53.694;9.910;2023-03-30T06:48:32;8.82;;;5.00;;
22628;SDS011;11481;53.694;9.910;2023-03-30T06:50:59;11.98;;;5.03;;
22628;SDS011;11481;53.694;9.910;2023-03-30T06:53:27;11.73;;;5.85;;
22628;SDS011;11481;53.694;9.910;2023-03-30T06:55:55;9.48;;;5.03;;
22628;SDS011;11481;53.694;9.910;2023-03-30T06:58:24;10.25;;;5.43;;
22628;SDS011;11481;53.694;9.910;2023-03-30T07:00:54;11.32;;;5.85;;
22628;SDS011;11481;53.694;9.910;2023-03-30T07:03:25;15.07;;;5.95;;
22628;SDS011;11481;53.694;9.910;2023-03-30T07:05:55;14.00;;;6.47;;
22628;SDS011;11481;53.694;9.910;2023-03-30T07:08:23;9.73;;;5.57;;
22628;SDS011;11481;53.694;9.910;2023-03-30T07:10:50;12.02;;;5.50;;
22628;SDS011;11481;53.694;9.910;2023-03-30T07:13:18;12.82;;;5.50;;
22628;SDS011;11481;53.694;9.910;2023-03-30T07:15:45;14.20;;;5.70;;
22628;SDS011;11481;53.694;9.910;2023-03-30T07:18:13;14.27;;;5.43;;
22628;SDS011;11481;53.694;9.910;2023-03-30T07:20:40;11.07;;;5.45;;
22628;SDS011;11481;53.694;9.910;2023-03-30T07:23:07;12.93;;;5.22;;
22628;SDS011;11481;53.694;9.910;2023-03-30T07:25:34;12.38;;;5.15;;
22628;SDS011;11481;53.694;9.910;2023-03-30T07:28:01;11.18;;;5.07;;
22628;SDS011;11481;53.694;9.910;2023-03-30T07:30:29;8.68;;;4.30;;
22628;SDS011;11481;53.694;9.910;2023-03-30T07:32:56;11.23;;;5.10;;
22628;SDS011;11481;53.694;9.910;2023-03-30T07:35:24;10.73;;;4.93;;
22628;SDS011;11481;53.694;9.910;2023-03-30T07:37:51;12.00;;;4.80;;
22628;SDS011;11481;53.694;9.910;2023-03-30T07:40:28;12.45;;;5.10;;
22628;SDS011;11481;53.694;9.910;2023-03-30T07:42:55;10.70;;;5.35;;
22628;SDS011;11481;53.694;9.910;2023-03-30T07:45:21;12.65;;;4.88;;
22628;SDS011;11481;53.694;9.910;2023-03-30T07:47:51;9.63;;;4.80;;
22628;SDS011;11481;53.694;9.910;2023-03-30T07:50:18;15.50;;;5.00;;
22628;SDS011;11481;53.694;9.910;2023-03-30T07:52:45;7.78;;;4.20;;
22628;SDS011;11481;53.694;9.910;2023-03-30T07:55:12;11.38;;;4.53;;
22628;SDS011;11481;53.694;9.910;2023-03-30T07:57:38;9.23;;;4.85;;
22628;SDS011;11481;53.694;9.910;2023-03-30T08:00:07;8.55;;;4.00;;
22628;SDS011;11481;53.694;9.910;2023-03-30T08:02:35;8.02;;;4.43;;
22628;SDS011;11481;53.694;9.910;2023-03-30T08:05:03;11.18;;;4.70;;
22628;SDS011;11481;53.694;9.910;2023-03-30T08:07:35;12.18;;;4.70;;
22628;SDS011;11481;53.694;9.910;2023-03-30T08:10:02;9.15;;;4.45;;
22628;SDS011;11481;53.694;9.910;2023-03-30T08:12:29;9.88;;;5.15;;
22628;SDS011;11481;53.694;9.910;2023-03-30T08:14:57;9.35;;;4.72;;
22628;SDS011;11481;53.694;9.910;2023-03-30T08:17:26;11.27;;;4.90;;
22628;SDS011;11481;53.694;9.910;2023-03-30T08:19:53;10.05;;;4.60;;
22628;SDS011;11481;53.694;9.910;2023-03-30T08:22:21;11.00;;;4.60;;
22628;SDS011;11481;53.694;9.910;2023-03-30T08:24:48;7.88;;;3.40;;
22628;SDS011;11481;53.694;9.910;2023-03-30T08:27:15;7.15;;;4.30;;
22628;SDS011;11481;53.694;9.910;2023-03-30T08:29:42;7.78;;;3.75;;
22628;SDS011;11481;53.694;9.910;2023-03-30T08:32:11;9.75;;;4.20;;
22628;SDS011;11481;53.694;9.910;2023-03-30T08:34:37;11.63;;;3.92;;
22628;SDS011;11481;53.694;9.910;2023-03-30T08:37:04;7.95;;;3.70;;
22628;SDS011;11481;53.694;9.910;2023-03-30T08:39:33;10.40;;;4.03;;
22628;SDS011;11481;53.694;9.910;2023-03-30T08:44:40;10.38;;;3.60;;
22628;SDS011;11481;53.694;9.910;2023-03-30T08:47:10;11.25;;;3.38;;
22628;SDS011;11481;53.694;9.910;2023-03-30T08:49:40;7.45;;;2.88;;
22628;SDS011;11481;53.694;9.910;2023-03-30T08:52:15;6.93;;;2.95;;
22628;SDS011;11481;53.694;9.910;2023-03-30T08:54:48;10.35;;;3.05;;
22628;SDS011;11481;53.694;9.910;2023-03-30T08:57:21;10.75;;;4.10;;
22628;SDS011;11481;53.694;9.910;2023-03-30T09:02:39;7.47;;;3.10;;
22628;SDS011;11481;53.694;9.910;2023-03-30T09:05:20;5.82;;;2.90;;
22628;SDS011;11481;53.694;9.910;2023-03-30T09:08:01;7.72;;;3.25;;
22628;SDS011;11481;53.694;9.910;2023-03-30T09:10:35;4.93;;;2.80;;
22628;SDS011;11481;53.694;9.910;2023-03-30T09:13:06;4.60;;;2.80;;
22628;SDS011;11481;53.694;9.910;2023-03-30T09:15:48;6.97;;;2.92;;
22628;SDS011;11481;53.694;9.910;2023-03-30T09:18:24;8.15;;;2.80;;
22628;SDS011;11481;53.694;9.910;2023-03-30T09:20:57;8.30;;;3.38;;
22628;SDS011;11481;53.694;9.910;2023-03-30T09:23:26;9.00;;;2.95;;
22628;SDS011;11481;53.694;9.910;2023-03-30T09:38:55;6.88;;;2.75;;
22628;SDS011;11481;53.694;9.910;2023-03-30T09:44:11;6.90;;;2.75;;
22628;SDS011;11481;53.694;9.910;2023-03-30T09:46:47;8.25;;;3.40;;
22628;SDS011;11481;53.694;9.910;2023-03-30T09:49:16;6.55;;;3.35;;
22628;SDS011;11481;53.694;9.910;2023-03-30T09:52:03;8.57;;;3.20;;
22628;SDS011;11481;53.694;9.910;2023-03-30T09:54:38;9.50;;;4.00;;
22628;SDS011;11481;53.694;9.910;2023-03-30T09:59:58;8.50;;;3.33;;
22628;SDS011;11481;53.694;9.910;2023-03-30T10:02:27;7.60;;;3.70;;
22628;SDS011;11481;53.694;9.910;2023-03-30T10:04:58;7.07;;;3.85;;
22628;SDS011;11481;53.694;9.910;2023-03-30T10:07:38;6.72;;;3.63;;
22628;SDS011;11481;53.694;9.910;2023-03-30T10:10:15;10.63;;;4.05;;
22628;SDS011;11481;53.694;9.910;2023-03-30T10:16:02;8.70;;;3.80;;
22628;SDS011;11481;53.694;9.910;2023-03-30T10:18:36;8.00;;;3.67;;
22628;SDS011;11481;53.694;9.910;2023-03-30T10:23:38;8.77;;;4.10;;
22628;SDS011;11481;53.694;9.910;2023-03-30T10:26:13;8.68;;;3.25;;
22628;SDS011;11481;53.694;9.910;2023-03-30T10:28:51;10.80;;;3.33;;
22628;SDS011;11481;53.694;9.910;2023-03-30T10:31:26;7.05;;;2.75;;
22628;SDS011;11481;53.694;9.910;2023-03-30T10:33:56;6.35;;;3.00;;
22628;SDS011;11481;53.694;9.910;2023-03-30T10:36:30;4.55;;;2.28;;
22628;SDS011;11481;53.694;9.910;2023-03-30T10:39:22;3.80;;;2.03;;
22628;SDS011;11481;53.694;9.910;2023-03-30T10:41:55;7.28;;;2.30;;
22628;SDS011;11481;53.694;9.910;2023-03-30T10:44:44;8.63;;;2.20;;
22628;SDS011;11481;53.694;9.910;2023-03-30T10:50:14;4.25;;;2.20;;
22628;SDS011;11481;53.694;9.910;2023-03-30T10:53:11;6.65;;;1.88;;
22628;SDS011;11481;53.694;9.910;2023-03-30T10:56:18;3.47;;;1.63;;
22628;SDS011;11481;53.694;9.910;2023-03-30T11:02:13;6.38;;;1.65;;
22628;SDS011;11481;53.694;9.910;2023-03-30T11:05:09;3.05;;;1.27;;
22628;SDS011;11481;53.694;9.910;2023-03-30T11:07:43;5.63;;;1.23;;
22628;SDS011;11481;53.694;9.910;2023-03-30T11:10:27;3.53;;;1.50;;
22628;SDS011;11481;53.694;9.910;2023-03-30T11:12:59;2.70;;;1.10;;
22628;SDS011;11481;53.694;9.910;2023-03-30T11:15:48;4.95;;;1.00;;
22628;SDS011;11481;53.694;9.910;2023-03-30T11:18:25;4.30;;;1.23;;
22628;SDS011;11481;53.694;9.910;2023-03-30T11:21:14;3.92;;;0.90;;
22628;SDS011;11481;53.694;9.910;2023-03-30T11:23:52;5.95;;;1.58;;
22628;SDS011;11481;53.694;9.910;2023-03-30T11:26:48;6.15;;;0.85;;
22628;SDS011;11481;53.694;9.910;2023-03-30T11:40:45;2.78;;;1.13;;
22628;SDS011;11481;53.694;9.910;2023-03-30T11:43:19;5.10;;;1.85;;
22628;SDS011;11481;53.694;9.910;2023-03-30T11:46:05;5.30;;;0.93;;
22628;SDS011;11481;53.694;9.910;2023-03-30T11:49:11;6.10;;;1.00;;
22628;SDS011;11481;53.694;9.910;2023-03-30T11:52:06;3.38;;;1.02;;
22628;SDS011;11481;53.694;9.910;2023-03-30T11:55:16;2.35;;;0.80;;
22628;SDS011;11481;53.694;9.910;2023-03-30T11:57:53;2.08;;;0.90;;
22628;SDS011;11481;53.694;9.910;2023-03-30T12:03:46;4.95;;;1.10;;
22628;SDS011;11481;53.694;9.910;2023-03-30T12:06:32;3.45;;;0.98;;
22628;SDS011;11481;53.694;9.910;2023-03-30T12:09:20;2.17;;;1.10;;
22628;SDS011;11481;53.694;9.910;2023-03-30T12:12:12;5.60;;;1.35;;
22628;SDS011;11481;53.694;9.910;2023-03-30T12:14:46;5.40;;;1.60;;
22628;SDS011;11481;53.694;9.910;2023-03-30T12:17:22;7.65;;;1.27;;
22628;SDS011;11481;53.694;9.910;2023-03-30T12:22:48;7.03;;;2.03;;
22628;SDS011;11481;53.694;9.910;2023-03-30T12:25:34;4.28;;;1.60;;
22628;SDS011;11481;53.694;9.910;2023-03-30T12:34:25;13.35;;;2.83;;
22628;SDS011;11481;53.694;9.910;2023-03-30T12:40:01;4.90;;;1.60;;
22628;SDS011;11481;53.694;9.910;2023-03-30T12:42:50;6.32;;;1.65;;
22628;SDS011;11481;53.694;9.910;2023-03-30T12:45:34;6.80;;;1.73;;
22628;SDS011;11481;53.694;9.910;2023-03-30T12:53:40;6.32;;;1.98;;
22628;SDS011;11481;53.694;9.910;2023-03-30T12:56:31;4.65;;;1.17;;
22628;SDS011;11481;53.694;9.910;2023-03-30T12:59:36;4.35;;;1.13;;
22628;SDS011;11481;53.694;9.910;2023-03-30T13:05:24;11.65;;;1.58;;
22628;SDS011;11481;53.694;9.910;2023-03-30T13:08:05;5.63;;;1.00;;
22628;SDS011;11481;53.694;9.910;2023-03-30T13:10:36;6.13;;;1.38;;
22628;SDS011;11481;53.694;9.910;2023-03-30T13:13:06;6.57;;;1.80;;
22628;SDS011;11481;53.694;9.910;2023-03-30T13:18:23;7.60;;;1.08;;
22628;SDS011;11481;53.694;9.910;2023-03-30T13:21:04;4.90;;;1.23;;
22628;SDS011;11481;53.694;9.910;2023-03-30T13:23:44;6.28;;;1.40;;
22628;SDS011;11481;53.694;9.910;2023-03-30T13:26:46;5.10;;;0.95;;
22628;SDS011;11481;53.694;9.910;2023-03-30T13:29:14;4.90;;;0.70;;
22628;SDS011;11481;53.694;9.910;2023-03-30T13:31:45;7.57;;;1.10;;
22628;SDS011;11481;53.694;9.910;2023-03-30T13:37:05;3.13;;;1.40;;
22628;SDS011;11481;53.694;9.910;2023-03-30T13:43:08;6.90;;;1.30;;
22628;SDS011;11481;53.694;9.910;2023-03-30T13:45:43;3.03;;;0.80;;
22628;SDS011;11481;53.694;9.910;2023-03-30T13:48:49;4.97;;;0.95;;
22628;SDS011;11481;53.694;9.910;2023-03-30T13:51:27;5.10;;;1.00;;
22628;SDS011;11481;53.694;9.910;2023-03-30T13:53:57;6.93;;;0.90;;
22628;SDS011;11481;53.694;9.910;2023-03-30T13:56:32;5.82;;;0.52;;
22628;SDS011;11481;53.694;9.910;2023-03-30T13:59:05;2.00;;;0.88;;
22628;SDS011;11481;53.694;9.910;2023-03-30T14:01:38;4.38;;;0.73;;
22628;SDS011;11481;53.694;9.910;2023-03-30T14:04:11;4.28;;;0.80;;
22628;SDS011;11481;53.694;9.910;2023-03-30T14:06:40;2.60;;;0.32;;
22628;SDS011;11481;53.694;9.910;2023-03-30T14:09:17;3.22;;;0.38;;
22628;SDS011;11481;53.694;9.910;2023-03-30T14:11:54;2.03;;;0.45;;
22628;SDS011;11481;53.694;9.910;2023-03-30T14:14:26;3.95;;;0.77;;
22628;SDS011;11481;53.694;9.910;2023-03-30T14:17:00;4.03;;;0.60;;
22628;SDS011;11481;53.694;9.910;2023-03-30T14:19:33;2.38;;;0.50;;
22628;SDS011;11481;53.694;9.910;2023-03-30T14:22:03;1.60;;;0.55;;
22628;SDS011;11481;53.694;9.910;2023-03-30T14:24:36;4.13;;;0.75;;
22628;SDS011;11481;53.694;9.910;2023-03-30T14:27:10;6.10;;;0.60;;
22628;SDS011;11481;53.694;9.910;2023-03-30T14:29:45;4.40;;;0.85;;
22628;SDS011;11481;53.694;9.910;2023-03-30T14:32:17;8.05;;;1.15;;
22628;SDS011;11481;53.694;9.910;2023-03-30T14:34:49;2.05;;;0.52;;
22628;SDS011;11481;53.694;9.910;2023-03-30T14:37:19;5.00;;;0.82;;
22628;SDS011;11481;53.694;9.910;2023-03-30T14:39:50;5.43;;;0.77;;
22628;SDS011;11481;53.694;9.910;2023-03-30T14:42:25;1.95;;;0.88;;
22628;SDS011;11481;53.694;9.910;2023-03-30T14:44:53;7.63;;;1.23;;
22628;SDS011;11481;53.694;9.910;2023-03-30T14:47:23;2.08;;;0.55;;
22628;SDS011;11481;53.694;9.910;2023-03-30T14:49:52;5.80;;;0.60;;
22628;SDS011;11481;53.694;9.910;2023-03-30T14:52:24;3.08;;;0.65;;
22628;SDS011;11481;53.694;9.910;2023-03-30T14:54:56;4.35;;;0.95;;
22628;SDS011;11481;53.694;9.910;2023-03-30T14:57:34;4.15;;;0.70;;
22628;SDS011;11481;53.694;9.910;2023-03-30T15:00:05;4.38;;;0.70;;
22628;SDS011;11481;53.694;9.910;2023-03-30T15:02:53;5.78;;;0.90;;
22628;SDS011;11481;53.694;9.910;2023-03-30T15:05:23;5.00;;;0.93;;
22628;SDS011;11481;53.694;9.910;2023-03-30T15:07:53;7.50;;;0.80;;
22628;SDS011;11481;53.694;9.910;2023-03-30T15:10:42;3.65;;;0.70;;
22628;SDS011;11481;53.694;9.910;2023-03-30T15:13:16;4.57;;;1.00;;
22628;SDS011;11481;53.694;9.910;2023-03-30T15:15:51;5.53;;;1.17;;
22628;SDS011;11481;53.694;9.910;2023-03-30T15:18:22;5.30;;;1.02;;
22628;SDS011;11481;53.694;9.910;2023-03-30T15:20:53;4.28;;;0.70;;
22628;SDS011;11481;53.694;9.910;2023-03-30T15:23:21;10.75;;;1.30;;
22628;SDS011;11481;53.694;9.910;2023-03-30T15:25:49;9.38;;;1.10;;
22628;SDS011;11481;53.694;9.910;2023-03-30T15:28:18;5.10;;;1.00;;
22628;SDS011;11481;53.694;9.910;2023-03-30T15:30:48;7.82;;;1.15;;
22628;SDS011;11481;53.694;9.910;2023-03-30T15:35:49;9.35;;;1.50;;
22628;SDS011;11481;53.694;9.910;2023-03-30T15:38:26;9.25;;;1.15;;
22628;SDS011;11481;53.694;9.910;2023-03-30T15:40:55;7.25;;;1.45;;
22628;SDS011;11481;53.694;9.910;2023-03-30T15:43:23;5.85;;;0.80;;
22628;SDS011;11481;53.694;9.910;2023-03-30T15:46:06;6.68;;;1.45;;
22628;SDS011;11481;53.694;9.910;2023-03-30T15:48:45;3.67;;;1.13;;
22628;SDS011;11481;53.694;9.910;2023-03-30T15:51:20;6.25;;;1.20;;
22628;SDS011;11481;53.694;9.910;2023-03-30T16:02:34;10.15;;;1.75;;
22628;SDS011;11481;53.694;9.910;2023-03-30T16:05:02;9.52;;;1.70;;
22628;SDS011;11481;53.694;9.910;2023-03-30T16:07:32;10.77;;;1.55;;
22628;SDS011;11481;53.694;9.910;2023-03-30T16:10:01;9.48;;;1.58;;
22628;SDS011;11481;53.694;9.910;2023-03-30T16:12:28;6.95;;;1.40;;
22628;SDS011;11481;53.694;9.910;2023-03-30T16:14:56;5.45;;;1.40;;
22628;SDS011;11481;53.694;9.910;2023-03-30T16:17:23;5.65;;;1.30;;
22628;SDS011;11481;53.694;9.910;2023-03-30T16:19:50;6.65;;;1.27;;
22628;SDS011;11481;53.694;9.910;2023-03-30T16:22:17;7.20;;;2.13;;
22628;SDS011;11481;53.694;9.910;2023-03-30T16:24:44;7.35;;;1.48;;
22628;SDS011;11481;53.694;9.910;2023-03-30T16:27:11;10.98;;;1.42;;
22628;SDS011;11481;53.694;9.910;2023-03-30T16:29:38;8.43;;;1.65;;
22628;SDS011;11481;53.694;9.910;2023-03-30T16:32:05;6.75;;;1.90;;
22628;SDS011;11481;53.694;9.910;2023-03-30T16:34:35;9.80;;;1.40;;
22628;SDS011;11481;53.694;9.910;2023-03-30T16:37:02;8.73;;;1.75;;
22628;SDS011;11481;53.694;9.910;2023-03-30T16:39:29;4.75;;;0.90;;
22628;SDS011;11481;53.694;9.910;2023-03-30T16:41:56;10.48;;;1.92;;
22628;SDS011;11481;53.694;9.910;2023-03-30T16:44:23;18.77;;;3.15;;
22628;SDS011;11481;53.694;9.910;2023-03-30T16:46:50;9.13;;;1.52;;
22628;SDS011;11481;53.694;9.910;2023-03-30T16:49:22;14.65;;;1.77;;
22628;SDS011;11481;53.694;9.910;2023-03-30T16:51:51;10.63;;;1.17;;
22628;SDS011;11481;53.694;9.910;2023-03-30T16:54:22;10.38;;;1.30;;
22628;SDS011;11481;53.694;9.910;2023-03-30T16:56:58;11.48;;;1.50;;
22628;SDS011;11481;53.694;9.910;2023-03-30T16:59:27;12.60;;;1.88;;
22628;SDS011;11481;53.694;9.910;2023-03-30T17:01:55;11.57;;;2.13;;
22628;SDS011;11481;53.694;9.910;2023-03-30T17:04:23;6.63;;;1.55;;
22628;SDS011;11481;53.694;9.910;2023-03-30T17:06:49;8.93;;;1.73;;